Terminal Aerodrome Forecast
Issued by NWS Tampa Bay Area, FL

Home | Current Version | Previous Version | Text Only | Print | Product List | Glossary On
Versions: 1 2 3 4 5 6 7 8 9 10 11 12 13 14 15 16 17 18
000
FTUS42 KTBW 272300
TAFFMY
TAF
KFMY 272338Z 2800/2824 00000KT P6SM FEW030 BKN250
     FM280300 00000KT P6SM SCT020 SCT250
     FM280600 00000KT 5SM BR FEW006 SCT250
      TEMPO 2808/2812 1SM BR BKN006
     FM281200 00000KT 3SM BR SCT005 SCT250
     FM281400 17004KT P6SM SCT005 SCT250
     FM281700 19006KT P6SM SCT025 SCT250=

USA.gov is the U.S. government's official web portal to all federal, state and local government web resources and services.